Weather History for Lakeville, MN

Change the Weather History Date:

Monday, September 16, 2013

  Actual Average Record
Temperature  
Mean Temperature 50 °F -  
Max Temperature 64 °F 70 °F 95 °F (1948)
Min Temperature 37 °F 47 °F 35 °F (2014)
Degree Days  
Heating Degree Days 14    
Moisture  
Dew Point 42 °F    
Average Humidity 78    
Maximum Humidity 100    
Minimum Humidity 45    
Precipitation  
Precipitation 0.00 in - - ()
Sea Level Pressure  
Sea Level Pressure 30.34 in    
Wind  
Wind Speed 2 mph (ESE)    
Max Wind Speed 8 mph    
Max Gust Speed -    
Visibility 10 miles    
Events      
Averages and records for this station are not official NWS values.
T = Trace of Precipitation, MM = Missing Value Source: NWS Daily Summary

Daily Weather History Graph

Daily Weather History Graph

Search for Another Location

Airport:

Trip Planner

Search our weather history database for the weather conditions in past years. The results will help you decide how hot, cold, wet, or windy it might be!

Date:

Astronomy

Sep. 16, 2013 Rise Set
Actual Time 6:53 AM CDT 7:21 PM CDT
Civil Twilight 6:23 AM CDT 7:50 PM CDT
Nautical Twilight 5:49 AM CDT 8:24 PM CDT
Astronomical Twilight 5:13 AM CDT 9:00 PM CDT
Moon 5:35 PM CDT (9/16) 3:34 AM CDT (9/16)
Length of Visible Light 13h 26m
Length of Day
12h 27m
Waxing Gibbous, 90% of the Moon is Illuminated
Sep 16
Waxing Gibbous
Sep 19
Full
Sep 26
Last Quarter
Oct 4
New
Oct 11
First Quarter

Hourly Weather History & Observations

Time (CDT) Temp. Windchill Dew Point Humidity Pressure Visibility Wind Dir Wind Speed Gust Speed Precip Events Conditions
12:12 AM 46.4 °F - 44.6 °F 93% 30.32 in 10.0 mi Calm Calm - N/A   Clear
12:32 AM 44.6 °F - 42.8 °F 93% 30.33 in 10.0 mi Calm Calm - N/A   Clear
12:53 AM 42.8 °F - 42.8 °F 100% 30.33 in 10.0 mi Calm Calm - N/A   Clear
1:12 AM 44.6 °F - 42.8 °F 93% 30.33 in 10.0 mi Calm Calm - N/A   Clear
1:33 AM 44.6 °F 43.1 °F 42.8 °F 93% 30.34 in 10.0 mi NE 3.5 mph - N/A   Clear
1:53 AM 42.8 °F - 41.0 °F 93% 30.34 in 10.0 mi Calm Calm - N/A   Clear
2:12 AM 41.0 °F - 39.2 °F 93% 30.34 in 10.0 mi Calm Calm - N/A   Clear
2:33 AM 41.0 °F - 39.2 °F 93% 30.34 in 7.0 mi Calm Calm - N/A   Clear
2:53 AM 39.2 °F - 39.2 °F 100% 30.35 in 5.0 mi Calm Calm - N/A   Clear
3:12 AM 39.2 °F - 39.2 °F 100% 30.35 in 7.0 mi Calm Calm - N/A   Clear
3:33 AM 39.2 °F - 39.2 °F 100% 30.35 in 7.0 mi Calm Calm - N/A   Clear
3:53 AM 37.4 °F - 37.4 °F 100% 30.35 in 10.0 mi Calm Calm - N/A   Clear
4:12 AM 39.2 °F - 39.2 °F 100% 30.35 in 10.0 mi Calm Calm - N/A   Clear
4:33 AM 37.4 °F - 37.4 °F 100% 30.36 in 10.0 mi Calm Calm - N/A   Clear
4:53 AM 37.4 °F - 37.4 °F 100% 30.36 in 10.0 mi Calm Calm - N/A   Clear
5:12 AM 37.4 °F - 37.4 °F 100% 30.37 in 10.0 mi Calm Calm - N/A   Clear
5:33 AM 37.4 °F - 37.4 °F 100% 30.37 in 10.0 mi Calm Calm - N/A   Clear
5:52 AM 37.4 °F - 37.4 °F 100% 30.38 in 10.0 mi Calm Calm - N/A   Clear
6:12 AM 37.4 °F - 37.4 °F 100% 30.38 in 10.0 mi Calm Calm - N/A   Clear
6:33 AM 37.4 °F - 37.4 °F 100% 30.39 in 10.0 mi Calm Calm - N/A   Clear
6:52 AM 37.4 °F - 35.6 °F 93% 30.39 in 10.0 mi Calm Calm - N/A   Clear
7:13 AM 37.4 °F - 37.4 °F 100% 30.39 in 10.0 mi Calm Calm - N/A   Clear
7:33 AM 37.4 °F - 37.4 °F 100% 30.40 in 10.0 mi Calm Calm - N/A   Clear
7:52 AM 39.2 °F 37.0 °F 39.2 °F 100% 30.40 in 10.0 mi ENE 3.5 mph - N/A   Clear
8:13 AM 42.8 °F 40.1 °F 42.8 °F 100% 30.40 in 10.0 mi ENE 4.6 mph - N/A   Clear
8:32 AM 42.8 °F 38.6 °F 42.8 °F 100% 30.40 in 10.0 mi East 6.9 mph - N/A   Clear
8:52 AM 44.6 °F 41.4 °F 42.8 °F 93% 30.40 in 10.0 mi East 5.8 mph - N/A   Clear
9:13 AM 46.4 °F 44.3 °F 44.6 °F 93% 30.40 in 10.0 mi East 4.6 mph - N/A   Clear
9:33 AM 48.2 °F - 44.6 °F 87% 30.41 in 10.0 mi SE 5.8 mph - N/A   Clear
9:52 AM 50.0 °F - 44.6 °F 82% 30.41 in 10.0 mi East 8.1 mph - N/A   Scattered Clouds
10:13 AM 50.0 °F - 44.6 °F 82% 30.41 in 10.0 mi SE 4.6 mph - N/A   Mostly Cloudy
10:32 AM 51.8 °F - 44.6 °F 76% 30.41 in 10.0 mi ESE 5.8 mph - N/A   Scattered Clouds
10:52 AM 53.6 °F - 44.6 °F 72% 30.41 in 10.0 mi Calm Calm - N/A   Scattered Clouds
11:13 AM 53.6 °F - 44.6 °F 72% 30.41 in 10.0 mi ESE 5.8 mph - N/A   Scattered Clouds
11:32 AM 53.6 °F - 44.6 °F 72% 30.41 in 10.0 mi Calm Calm - N/A   Scattered Clouds
11:52 AM 55.4 °F - 46.4 °F 72% 30.40 in 10.0 mi ESE 4.6 mph - N/A   Scattered Clouds
12:13 PM 57.2 °F - 44.6 °F 63% 30.40 in 10.0 mi East 6.9 mph - N/A   Clear
12:32 PM 57.2 °F - 44.6 °F 63% 30.39 in 10.0 mi East 5.8 mph - N/A   Clear
12:53 PM 59.0 °F - 44.6 °F 59% 30.39 in 10.0 mi ESE 4.6 mph - N/A   Clear
1:12 PM 60.8 °F - 44.6 °F 55% 30.38 in 10.0 mi Calm Calm - N/A   Clear
1:32 PM 60.8 °F - 44.6 °F 55% 30.38 in 10.0 mi SE 3.5 mph - N/A   Clear
1:53 PM 62.6 °F - 44.6 °F 52% 30.37 in 10.0 mi ESE 6.9 mph - N/A   Clear
2:12 PM 62.6 °F - 44.6 °F 52% 30.36 in 10.0 mi SE 4.6 mph - N/A   Clear
2:32 PM 62.6 °F - 42.8 °F 48% 30.36 in 10.0 mi SSE 4.6 mph - N/A   Clear
2:53 PM 62.6 °F - 44.6 °F 52% 30.35 in 10.0 mi ESE 5.8 mph - N/A   Clear
3:12 PM 64.4 °F - 44.6 °F 49% 30.34 in 10.0 mi ESE 5.8 mph - N/A   Clear
3:32 PM 64.4 °F - 42.8 °F 45% 30.33 in 10.0 mi SE 5.8 mph - N/A   Clear
3:53 PM 64.4 °F - 42.8 °F 45% 30.32 in 10.0 mi East 8.1 mph - N/A   Clear
4:12 PM 64.4 °F - 42.8 °F 45% 30.31 in 10.0 mi Calm Calm - N/A   Clear
4:32 PM 64.4 °F - 42.8 °F 45% 30.30 in 10.0 mi Calm Calm - N/A   Clear
4:53 PM 64.4 °F - 42.8 °F 45% 30.29 in 10.0 mi ESE 5.8 mph - N/A   Clear
5:12 PM 64.4 °F - 42.8 °F 45% 30.29 in 10.0 mi ESE 5.8 mph - N/A   Clear
5:32 PM 64.4 °F - 44.6 °F 49% 30.29 in 10.0 mi SE 4.6 mph - N/A   Clear
5:53 PM 64.4 °F - 42.8 °F 45% 30.28 in 10.0 mi ESE 4.6 mph - N/A   Clear
6:12 PM 62.6 °F - 42.8 °F 48% 30.28 in 10.0 mi ESE 4.6 mph - N/A   Clear
6:32 PM 62.6 °F - 44.6 °F 52% 30.28 in 10.0 mi ESE 4.6 mph - N/A   Clear
6:53 PM 59.0 °F - 44.6 °F 59% 30.28 in 10.0 mi ESE 3.5 mph - N/A   Clear
7:12 PM 55.4 °F - 44.6 °F 67% 30.27 in 10.0 mi ESE 4.6 mph - N/A   Clear
7:32 PM 53.6 °F - 44.6 °F 72% 30.27 in 7.0 mi ESE 3.5 mph - N/A   Clear
7:53 PM 51.8 °F - 44.6 °F 76% 30.27 in 10.0 mi ESE 4.6 mph - N/A   Clear
8:12 PM 50.0 °F - 44.6 °F 82% 30.27 in 10.0 mi ESE 4.6 mph - N/A   Clear
8:32 PM 50.0 °F - 44.6 °F 82% 30.28 in 10.0 mi ESE 4.6 mph - N/A   Clear
8:53 PM 48.2 °F - 44.6 °F 87% 30.27 in 10.0 mi ESE 4.6 mph - N/A   Clear
9:12 PM 48.2 °F - 42.8 °F 82% 30.27 in 10.0 mi SE 3.5 mph - N/A   Clear
9:33 PM 48.2 °F - 42.8 °F 82% 30.27 in 10.0 mi SE 3.5 mph - N/A   Clear
9:52 PM 48.2 °F - 42.8 °F 82% 30.27 in 10.0 mi SE 3.5 mph - N/A   Clear
10:12 PM 48.2 °F - 42.8 °F 82% 30.27 in 10.0 mi SE 3.5 mph - N/A   Clear
10:33 PM 48.2 °F - 42.8 °F 82% 30.27 in 10.0 mi SE 3.5 mph - N/A   Clear
10:52 PM 46.4 °F - 42.8 °F 87% 30.27 in 10.0 mi Calm Calm - N/A   Clear
11:12 PM 46.4 °F 45.2 °F 42.8 °F 87% 30.26 in 10.0 mi SE 3.5 mph - N/A   Clear
11:33 PM 46.4 °F - 42.8 °F 87% 30.27 in 10.0 mi Calm Calm - N/A   Clear
11:52 PM 46.4 °F 45.2 °F 42.8 °F 87% 30.27 in 10.0 mi South 3.5 mph - N/A   Clear